sensor_id;sensor_type;location;lat;lon;timestamp;P1;durP1;ratioP1;P2;durP2;ratioP2
67747;SDS011;54543;50.712;6.070;2023-07-24T00:00:40;4.85;;;2.38;;
67747;SDS011;54543;50.712;6.070;2023-07-24T00:03:06;4.40;;;3.03;;
67747;SDS011;54543;50.712;6.070;2023-07-24T00:05:31;6.57;;;3.05;;
67747;SDS011;54543;50.712;6.070;2023-07-24T00:07:57;5.22;;;2.85;;
67747;SDS011;54543;50.712;6.070;2023-07-24T00:10:23;4.43;;;2.75;;
67747;SDS011;54543;50.712;6.070;2023-07-24T00:12:48;4.03;;;2.78;;
67747;SDS011;54543;50.712;6.070;2023-07-24T00:15:14;4.40;;;2.92;;
67747;SDS011;54543;50.712;6.070;2023-07-24T00:17:39;4.57;;;2.40;;
67747;SDS011;54543;50.712;6.070;2023-07-24T00:20:05;5.05;;;3.10;;
67747;SDS011;54543;50.712;6.070;2023-07-24T00:22:31;4.53;;;2.83;;
67747;SDS011;54543;50.712;6.070;2023-07-24T00:24:57;4.22;;;2.85;;
67747;SDS011;54543;50.712;6.070;2023-07-24T00:27:23;4.50;;;2.75;;
67747;SDS011;54543;50.712;6.070;2023-07-24T00:29:48;4.07;;;2.70;;
67747;SDS011;54543;50.712;6.070;2023-07-24T00:32:14;5.40;;;2.88;;
67747;SDS011;54543;50.712;6.070;2023-07-24T00:34:39;4.35;;;2.70;;
67747;SDS011;54543;50.712;6.070;2023-07-24T00:37:05;3.78;;;2.40;;
67747;SDS011;54543;50.712;6.070;2023-07-24T00:39:30;4.18;;;2.63;;
67747;SDS011;54543;50.712;6.070;2023-07-24T00:41:56;3.97;;;2.58;;
67747;SDS011;54543;50.712;6.070;2023-07-24T00:44:22;4.38;;;2.92;;
67747;SDS011;54543;50.712;6.070;2023-07-24T00:46:47;3.70;;;2.42;;
67747;SDS011;54543;50.712;6.070;2023-07-24T00:49:13;4.25;;;2.53;;
67747;SDS011;54543;50.712;6.070;2023-07-24T00:51:39;4.95;;;2.67;;
67747;SDS011;54543;50.712;6.070;2023-07-24T00:54:05;3.92;;;2.65;;
67747;SDS011;54543;50.712;6.070;2023-07-24T00:56:31;3.80;;;2.40;;
67747;SDS011;54543;50.712;6.070;2023-07-24T00:58:57;5.15;;;2.60;;
67747;SDS011;54543;50.712;6.070;2023-07-24T01:01:23;3.78;;;2.75;;
67747;SDS011;54543;50.712;6.070;2023-07-24T01:03:50;4.80;;;2.70;;
67747;SDS011;54543;50.712;6.070;2023-07-24T01:06:17;3.53;;;2.13;;
67747;SDS011;54543;50.712;6.070;2023-07-24T01:08:43;5.43;;;2.75;;
67747;SDS011;54543;50.712;6.070;2023-07-24T01:13:38;4.50;;;2.40;;
67747;SDS011;54543;50.712;6.070;2023-07-24T01:16:13;5.18;;;2.70;;
67747;SDS011;54543;50.712;6.070;2023-07-24T01:18:39;3.67;;;2.25;;
67747;SDS011;54543;50.712;6.070;2023-07-24T01:21:08;3.45;;;2.20;;
67747;SDS011;54543;50.712;6.070;2023-07-24T01:26:21;6.60;;;2.70;;
67747;SDS011;54543;50.712;6.070;2023-07-24T01:28:49;4.97;;;2.28;;
67747;SDS011;54543;50.712;6.070;2023-07-24T01:31:14;4.35;;;2.50;;
67747;SDS011;54543;50.712;6.070;2023-07-24T01:33:41;4.97;;;2.30;;
67747;SDS011;54543;50.712;6.070;2023-07-24T01:36:07;4.97;;;2.67;;
67747;SDS011;54543;50.712;6.070;2023-07-24T01:38:34;4.47;;;2.70;;
67747;SDS011;54543;50.712;6.070;2023-07-24T01:41:00;4.18;;;2.55;;
67747;SDS011;54543;50.712;6.070;2023-07-24T01:43:28;3.75;;;2.50;;
67747;SDS011;54543;50.712;6.070;2023-07-24T01:45:54;3.63;;;2.40;;
67747;SDS011;54543;50.712;6.070;2023-07-24T01:48:20;4.80;;;2.50;;
67747;SDS011;54543;50.712;6.070;2023-07-24T01:50:45;6.40;;;2.90;;
67747;SDS011;54543;50.712;6.070;2023-07-24T01:53:11;5.03;;;2.97;;
67747;SDS011;54543;50.712;6.070;2023-07-24T01:55:37;3.97;;;2.50;;
67747;SDS011;54543;50.712;6.070;2023-07-24T01:58:02;5.10;;;2.75;;
67747;SDS011;54543;50.712;6.070;2023-07-24T02:00:29;4.28;;;2.80;;
67747;SDS011;54543;50.712;6.070;2023-07-24T02:02:54;5.32;;;2.97;;
67747;SDS011;54543;50.712;6.070;2023-07-24T02:05:20;5.38;;;2.65;;
67747;SDS011;54543;50.712;6.070;2023-07-24T02:07:47;5.63;;;2.83;;
67747;SDS011;54543;50.712;6.070;2023-07-24T02:10:12;5.07;;;3.17;;
67747;SDS011;54543;50.712;6.070;2023-07-24T02:12:38;3.88;;;2.80;;
67747;SDS011;54543;50.712;6.070;2023-07-24T02:15:03;6.25;;;3.05;;
67747;SDS011;54543;50.712;6.070;2023-07-24T02:17:29;5.07;;;3.05;;
67747;SDS011;54543;50.712;6.070;2023-07-24T02:19:55;4.63;;;2.53;;
67747;SDS011;54543;50.712;6.070;2023-07-24T02:22:20;4.00;;;2.53;;
67747;SDS011;54543;50.712;6.070;2023-07-24T02:24:46;6.15;;;2.92;;
67747;SDS011;54543;50.712;6.070;2023-07-24T02:27:12;3.95;;;2.88;;
67747;SDS011;54543;50.712;6.070;2023-07-24T02:29:39;4.13;;;2.55;;
67747;SDS011;54543;50.712;6.070;2023-07-24T02:32:05;3.60;;;2.50;;
67747;SDS011;54543;50.712;6.070;2023-07-24T02:34:30;4.82;;;2.60;;
67747;SDS011;54543;50.712;6.070;2023-07-24T02:36:56;4.32;;;2.67;;
67747;SDS011;54543;50.712;6.070;2023-07-24T02:39:21;3.17;;;2.10;;
67747;SDS011;54543;50.712;6.070;2023-07-24T02:41:47;5.78;;;2.53;;
67747;SDS011;54543;50.712;6.070;2023-07-24T02:44:13;4.70;;;2.92;;
67747;SDS011;54543;50.712;6.070;2023-07-24T02:46:39;5.30;;;2.90;;
67747;SDS011;54543;50.712;6.070;2023-07-24T02:49:04;5.07;;;3.03;;
67747;SDS011;54543;50.712;6.070;2023-07-24T02:51:30;5.20;;;3.03;;
67747;SDS011;54543;50.712;6.070;2023-07-24T02:53:56;5.22;;;2.67;;
67747;SDS011;54543;50.712;6.070;2023-07-24T02:56:22;3.83;;;2.67;;
67747;SDS011;54543;50.712;6.070;2023-07-24T02:58:47;4.90;;;2.85;;
67747;SDS011;54543;50.712;6.070;2023-07-24T03:01:13;4.28;;;3.00;;
67747;SDS011;54543;50.712;6.070;2023-07-24T03:03:40;5.38;;;2.63;;
67747;SDS011;54543;50.712;6.070;2023-07-24T03:06:06;3.90;;;2.42;;
67747;SDS011;54543;50.712;6.070;2023-07-24T03:08:32;6.15;;;3.55;;
67747;SDS011;54543;50.712;6.070;2023-07-24T03:10:59;6.25;;;2.85;;
67747;SDS011;54543;50.712;6.070;2023-07-24T03:13:25;4.25;;;2.90;;
67747;SDS011;54543;50.712;6.070;2023-07-24T03:15:51;4.80;;;2.83;;
67747;SDS011;54543;50.712;6.070;2023-07-24T03:18:21;4.00;;;2.53;;
67747;SDS011;54543;50.712;6.070;2023-07-24T03:20:46;4.85;;;3.10;;
67747;SDS011;54543;50.712;6.070;2023-07-24T03:23:12;4.82;;;3.00;;
67747;SDS011;54543;50.712;6.070;2023-07-24T03:25:37;4.53;;;2.90;;
67747;SDS011;54543;50.712;6.070;2023-07-24T03:28:03;5.32;;;3.05;;
67747;SDS011;54543;50.712;6.070;2023-07-24T03:30:29;6.35;;;3.00;;
67747;SDS011;54543;50.712;6.070;2023-07-24T03:32:54;6.38;;;4.20;;
67747;SDS011;54543;50.712;6.070;2023-07-24T03:35:20;7.45;;;5.30;;
67747;SDS011;54543;50.712;6.070;2023-07-24T03:37:46;11.57;;;9.02;;
67747;SDS011;54543;50.712;6.070;2023-07-24T03:40:11;7.43;;;5.25;;
67747;SDS011;54543;50.712;6.070;2023-07-24T03:42:37;6.75;;;4.47;;
67747;SDS011;54543;50.712;6.070;2023-07-24T03:45:03;6.82;;;5.07;;
67747;SDS011;54543;50.712;6.070;2023-07-24T03:47:29;6.53;;;4.25;;
67747;SDS011;54543;50.712;6.070;2023-07-24T03:49:54;12.93;;;9.65;;
67747;SDS011;54543;50.712;6.070;2023-07-24T03:52:20;11.82;;;8.38;;
67747;SDS011;54543;50.712;6.070;2023-07-24T03:54:46;13.77;;;10.52;;
67747;SDS011;54543;50.712;6.070;2023-07-24T03:57:11;10.82;;;7.20;;
67747;SDS011;54543;50.712;6.070;2023-07-24T03:59:37;10.35;;;7.22;;
67747;SDS011;54543;50.712;6.070;2023-07-24T04:02:03;14.43;;;10.25;;
67747;SDS011;54543;50.712;6.070;2023-07-24T04:04:29;13.95;;;9.20;;
67747;SDS011;54543;50.712;6.070;2023-07-24T04:06:55;13.70;;;10.70;;
67747;SDS011;54543;50.712;6.070;2023-07-24T04:09:20;13.27;;;9.32;;
67747;SDS011;54543;50.712;6.070;2023-07-24T04:11:46;9.88;;;6.90;;
67747;SDS011;54543;50.712;6.070;2023-07-24T04:14:11;9.82;;;6.43;;
67747;SDS011;54543;50.712;6.070;2023-07-24T04:16:37;9.02;;;6.28;;
67747;SDS011;54543;50.712;6.070;2023-07-24T04:19:03;9.52;;;5.80;;
67747;SDS011;54543;50.712;6.070;2023-07-24T04:21:29;9.18;;;6.47;;
67747;SDS011;54543;50.712;6.070;2023-07-24T04:23:54;8.43;;;5.80;;
67747;SDS011;54543;50.712;6.070;2023-07-24T04:26:20;7.03;;;4.68;;
67747;SDS011;54543;50.712;6.070;2023-07-24T04:28:45;8.57;;;5.32;;
67747;SDS011;54543;50.712;6.070;2023-07-24T04:31:11;8.43;;;5.85;;
67747;SDS011;54543;50.712;6.070;2023-07-24T04:33:37;7.68;;;5.03;;
67747;SDS011;54543;50.712;6.070;2023-07-24T04:36:03;6.25;;;4.28;;
67747;SDS011;54543;50.712;6.070;2023-07-24T04:38:29;8.48;;;5.18;;
67747;SDS011;54543;50.712;6.070;2023-07-24T04:40:54;6.57;;;3.95;;
67747;SDS011;54543;50.712;6.070;2023-07-24T04:43:20;6.82;;;4.15;;
67747;SDS011;54543;50.712;6.070;2023-07-24T04:45:45;6.97;;;4.68;;
67747;SDS011;54543;50.712;6.070;2023-07-24T04:48:11;6.55;;;4.43;;
67747;SDS011;54543;50.712;6.070;2023-07-24T04:50:36;7.93;;;4.82;;
67747;SDS011;54543;50.712;6.070;2023-07-24T04:53:02;5.95;;;3.63;;
67747;SDS011;54543;50.712;6.070;2023-07-24T04:55:27;10.95;;;7.63;;
67747;SDS011;54543;50.712;6.070;2023-07-24T04:57:53;10.43;;;7.13;;
67747;SDS011;54543;50.712;6.070;2023-07-24T05:00:19;10.88;;;7.20;;
67747;SDS011;54543;50.712;6.070;2023-07-24T05:02:44;13.20;;;7.53;;
67747;SDS011;54543;50.712;6.070;2023-07-24T05:05:10;11.45;;;7.35;;
67747;SDS011;54543;50.712;6.070;2023-07-24T05:07:36;8.60;;;5.35;;
67747;SDS011;54543;50.712;6.070;2023-07-24T05:10:01;6.90;;;4.32;;
67747;SDS011;54543;50.712;6.070;2023-07-24T05:12:27;6.53;;;4.15;;
67747;SDS011;54543;50.712;6.070;2023-07-24T05:14:52;9.20;;;6.03;;
67747;SDS011;54543;50.712;6.070;2023-07-24T05:17:18;5.80;;;3.85;;
67747;SDS011;54543;50.712;6.070;2023-07-24T05:19:43;6.07;;;3.85;;
67747;SDS011;54543;50.712;6.070;2023-07-24T05:22:09;6.40;;;3.90;;
67747;SDS011;54543;50.712;6.070;2023-07-24T05:24:36;6.50;;;4.07;;
67747;SDS011;54543;50.712;6.070;2023-07-24T05:27:02;6.60;;;3.70;;
67747;SDS011;54543;50.712;6.070;2023-07-24T05:29:29;6.50;;;4.03;;
67747;SDS011;54543;50.712;6.070;2023-07-24T05:31:54;6.47;;;3.30;;
67747;SDS011;54543;50.712;6.070;2023-07-24T05:34:20;6.18;;;3.55;;
67747;SDS011;54543;50.712;6.070;2023-07-24T05:36:48;6.15;;;3.22;;
67747;SDS011;54543;50.712;6.070;2023-07-24T05:39:13;4.70;;;2.90;;
67747;SDS011;54543;50.712;6.070;2023-07-24T05:41:39;5.10;;;2.97;;
67747;SDS011;54543;50.712;6.070;2023-07-24T05:44:04;4.93;;;3.00;;
67747;SDS011;54543;50.712;6.070;2023-07-24T05:46:32;6.47;;;3.30;;
67747;SDS011;54543;50.712;6.070;2023-07-24T05:48:57;6.72;;;3.08;;
67747;SDS011;54543;50.712;6.070;2023-07-24T05:51:25;6.20;;;3.10;;
67747;SDS011;54543;50.712;6.070;2023-07-24T05:53:50;4.68;;;2.63;;
67747;SDS011;54543;50.712;6.070;2023-07-24T05:56:16;3.83;;;2.55;;
67747;SDS011;54543;50.712;6.070;2023-07-24T05:58:41;5.15;;;3.25;;
67747;SDS011;54543;50.712;6.070;2023-07-24T06:01:07;6.40;;;3.60;;
67747;SDS011;54543;50.712;6.070;2023-07-24T06:03:37;6.00;;;2.70;;
67747;SDS011;54543;50.712;6.070;2023-07-24T06:06:05;5.30;;;3.40;;
67747;SDS011;54543;50.712;6.070;2023-07-24T06:08:32;6.22;;;3.60;;
67747;SDS011;54543;50.712;6.070;2023-07-24T06:10:59;9.90;;;6.45;;
67747;SDS011;54543;50.712;6.070;2023-07-24T06:13:26;6.90;;;4.22;;
67747;SDS011;54543;50.712;6.070;2023-07-24T06:15:52;6.53;;;3.28;;
67747;SDS011;54543;50.712;6.070;2023-07-24T06:18:18;5.47;;;3.45;;
67747;SDS011;54543;50.712;6.070;2023-07-24T06:20:44;6.57;;;3.10;;
67747;SDS011;54543;50.712;6.070;2023-07-24T06:23:09;5.53;;;3.22;;
67747;SDS011;54543;50.712;6.070;2023-07-24T06:25:35;5.53;;;3.28;;
67747;SDS011;54543;50.712;6.070;2023-07-24T06:28:01;4.90;;;3.08;;
67747;SDS011;54543;50.712;6.070;2023-07-24T06:30:26;7.30;;;5.32;;
67747;SDS011;54543;50.712;6.070;2023-07-24T06:32:57;8.25;;;3.97;;
67747;SDS011;54543;50.712;6.070;2023-07-24T06:35:24;5.95;;;3.45;;
67747;SDS011;54543;50.712;6.070;2023-07-24T06:37:52;6.13;;;3.78;;
67747;SDS011;54543;50.712;6.070;2023-07-24T06:40:18;5.68;;;3.50;;
67747;SDS011;54543;50.712;6.070;2023-07-24T06:42:43;6.40;;;3.58;;
67747;SDS011;54543;50.712;6.070;2023-07-24T06:45:09;5.75;;;3.53;;
67747;SDS011;54543;50.712;6.070;2023-07-24T06:47:35;5.88;;;3.28;;
67747;SDS011;54543;50.712;6.070;2023-07-24T06:50:00;6.28;;;3.60;;
67747;SDS011;54543;50.712;6.070;2023-07-24T06:52:27;5.75;;;3.85;;
67747;SDS011;54543;50.712;6.070;2023-07-24T06:54:53;6.38;;;4.00;;
67747;SDS011;54543;50.712;6.070;2023-07-24T06:57:18;8.50;;;4.63;;
67747;SDS011;54543;50.712;6.070;2023-07-24T06:59:44;6.10;;;4.07;;
67747;SDS011;54543;50.712;6.070;2023-07-24T07:02:11;6.80;;;4.30;;
67747;SDS011;54543;50.712;6.070;2023-07-24T07:04:37;6.35;;;3.65;;
67747;SDS011;54543;50.712;6.070;2023-07-24T07:07:06;5.63;;;3.58;;
67747;SDS011;54543;50.712;6.070;2023-07-24T07:09:32;5.57;;;3.42;;
67747;SDS011;54543;50.712;6.070;2023-07-24T07:11:58;4.55;;;3.13;;
67747;SDS011;54543;50.712;6.070;2023-07-24T07:14:24;5.80;;;3.30;;
67747;SDS011;54543;50.712;6.070;2023-07-24T07:16:50;4.93;;;3.25;;
67747;SDS011;54543;50.712;6.070;2023-07-24T07:19:17;5.72;;;3.30;;
67747;SDS011;54543;50.712;6.070;2023-07-24T07:21:44;5.45;;;3.20;;
67747;SDS011;54543;50.712;6.070;2023-07-24T07:24:09;5.22;;;3.00;;
67747;SDS011;54543;50.712;6.070;2023-07-24T07:26:35;4.55;;;2.90;;
67747;SDS011;54543;50.712;6.070;2023-07-24T07:29:00;5.32;;;2.90;;
67747;SDS011;54543;50.712;6.070;2023-07-24T07:31:27;4.90;;;3.05;;
67747;SDS011;54543;50.712;6.070;2023-07-24T07:33:53;6.47;;;3.78;;
67747;SDS011;54543;50.712;6.070;2023-07-24T07:36:18;6.05;;;3.10;;
67747;SDS011;54543;50.712;6.070;2023-07-24T07:38:46;8.00;;;5.50;;
67747;SDS011;54543;50.712;6.070;2023-07-24T07:41:13;9.52;;;6.78;;
67747;SDS011;54543;50.712;6.070;2023-07-24T07:43:39;16.58;;;11.35;;
67747;SDS011;54543;50.712;6.070;2023-07-24T07:46:05;9.95;;;7.70;;
67747;SDS011;54543;50.712;6.070;2023-07-24T07:48:30;8.60;;;6.13;;
67747;SDS011;54543;50.712;6.070;2023-07-24T07:50:57;7.30;;;5.20;;
67747;SDS011;54543;50.712;6.070;2023-07-24T07:53:23;7.15;;;5.18;;
67747;SDS011;54543;50.712;6.070;2023-07-24T07:55:56;6.22;;;4.30;;
67747;SDS011;54543;50.712;6.070;2023-07-24T07:58:22;7.13;;;4.45;;
67747;SDS011;54543;50.712;6.070;2023-07-24T08:00:51;7.80;;;5.55;;
67747;SDS011;54543;50.712;6.070;2023-07-24T08:03:17;6.18;;;4.03;;
67747;SDS011;54543;50.712;6.070;2023-07-24T08:05:43;5.80;;;3.70;;
67747;SDS011;54543;50.712;6.070;2023-07-24T08:08:08;5.57;;;3.78;;
67747;SDS011;54543;50.712;6.070;2023-07-24T08:10:36;5.22;;;3.00;;
67747;SDS011;54543;50.712;6.070;2023-07-24T08:13:05;5.13;;;3.42;;
67747;SDS011;54543;50.712;6.070;2023-07-24T08:15:36;8.48;;;5.95;;
67747;SDS011;54543;50.712;6.070;2023-07-24T08:18:08;5.05;;;3.58;;
67747;SDS011;54543;50.712;6.070;2023-07-24T08:20:37;5.78;;;3.55;;
67747;SDS011;54543;50.712;6.070;2023-07-24T08:23:04;7.32;;;4.97;;
67747;SDS011;54543;50.712;6.070;2023-07-24T08:25:30;6.07;;;4.88;;
67747;SDS011;54543;50.712;6.070;2023-07-24T08:27:56;8.05;;;5.00;;
67747;SDS011;54543;50.712;6.070;2023-07-24T08:30:22;4.63;;;3.40;;
67747;SDS011;54543;50.712;6.070;2023-07-24T08:32:48;3.70;;;2.38;;
67747;SDS011;54543;50.712;6.070;2023-07-24T08:35:16;5.82;;;3.30;;
67747;SDS011;54543;50.712;6.070;2023-07-24T08:37:44;4.10;;;2.67;;
67747;SDS011;54543;50.712;6.070;2023-07-24T08:40:10;6.05;;;3.70;;
67747;SDS011;54543;50.712;6.070;2023-07-24T08:42:39;4.57;;;2.67;;
67747;SDS011;54543;50.712;6.070;2023-07-24T08:45:11;4.65;;;3.08;;
67747;SDS011;54543;50.712;6.070;2023-07-24T08:47:43;8.75;;;6.35;;
67747;SDS011;54543;50.712;6.070;2023-07-24T08:50:10;6.20;;;3.58;;
67747;SDS011;54543;50.712;6.070;2023-07-24T08:52:40;4.85;;;3.10;;
67747;SDS011;54543;50.712;6.070;2023-07-24T08:55:07;4.82;;;2.92;;
67747;SDS011;54543;50.712;6.070;2023-07-24T08:57:34;7.07;;;5.55;;
67747;SDS011;54543;50.712;6.070;2023-07-24T09:00:00;5.88;;;3.80;;
67747;SDS011;54543;50.712;6.070;2023-07-24T09:02:30;5.57;;;3.25;;
67747;SDS011;54543;50.712;6.070;2023-07-24T09:04:56;5.38;;;3.72;;
67747;SDS011;54543;50.712;6.070;2023-07-24T09:07:22;6.80;;;4.22;;
67747;SDS011;54543;50.712;6.070;2023-07-24T09:09:48;4.68;;;2.92;;
67747;SDS011;54543;50.712;6.070;2023-07-24T09:12:14;5.78;;;3.22;;
67747;SDS011;54543;50.712;6.070;2023-07-24T09:14:41;5.47;;;3.53;;
67747;SDS011;54543;50.712;6.070;2023-07-24T09:19:36;4.43;;;3.25;;
67747;SDS011;54543;50.712;6.070;2023-07-24T09:22:14;4.50;;;3.20;;
67747;SDS011;54543;50.712;6.070;2023-07-24T09:24:50;4.32;;;3.00;;
67747;SDS011;54543;50.712;6.070;2023-07-24T09:27:17;5.07;;;3.08;;
67747;SDS011;54543;50.712;6.070;2023-07-24T09:29:43;5.30;;;2.92;;
67747;SDS011;54543;50.712;6.070;2023-07-24T09:32:18;4.85;;;3.30;;
67747;SDS011;54543;50.712;6.070;2023-07-24T09:34:45;4.38;;;3.10;;
67747;SDS011;54543;50.712;6.070;2023-07-24T09:37:11;5.05;;;3.45;;
67747;SDS011;54543;50.712;6.070;2023-07-24T09:39:51;5.22;;;3.72;;
67747;SDS011;54543;50.712;6.070;2023-07-24T09:42:16;4.90;;;3.28;;
67747;SDS011;54543;50.712;6.070;2023-07-24T09:44:42;5.30;;;3.90;;
67747;SDS011;54543;50.712;6.070;2023-07-24T09:47:07;8.48;;;6.22;;
67747;SDS011;54543;50.712;6.070;2023-07-24T09:49:33;6.03;;;4.82;;
67747;SDS011;54543;50.712;6.070;2023-07-24T09:51:59;11.25;;;8.55;;
67747;SDS011;54543;50.712;6.070;2023-07-24T09:54:30;9.15;;;6.93;;
67747;SDS011;54543;50.712;6.070;2023-07-24T09:57:06;11.63;;;8.80;;
67747;SDS011;54543;50.712;6.070;2023-07-24T09:59:33;7.28;;;5.30;;
67747;SDS011;54543;50.712;6.070;2023-07-24T10:02:00;10.18;;;7.50;;
67747;SDS011;54543;50.712;6.070;2023-07-24T10:04:26;8.23;;;5.55;;
67747;SDS011;54543;50.712;6.070;2023-07-24T10:06:51;8.95;;;7.18;;
67747;SDS011;54543;50.712;6.070;2023-07-24T10:09:17;10.93;;;9.27;;
67747;SDS011;54543;50.712;6.070;2023-07-24T10:11:46;7.32;;;5.30;;
67747;SDS011;54543;50.712;6.070;2023-07-24T10:14:12;5.65;;;4.05;;
67747;SDS011;54543;50.712;6.070;2023-07-24T10:16:38;8.55;;;7.22;;
67747;SDS011;54543;50.712;6.070;2023-07-24T10:19:12;5.03;;;4.05;;
67747;SDS011;54543;50.712;6.070;2023-07-24T10:21:44;4.93;;;3.95;;
67747;SDS011;54543;50.712;6.070;2023-07-24T10:24:13;5.95;;;4.20;;
67747;SDS011;54543;50.712;6.070;2023-07-24T10:26:42;8.30;;;6.45;;
67747;SDS011;54543;50.712;6.070;2023-07-24T10:29:11;10.55;;;9.45;;
67747;SDS011;54543;50.712;6.070;2023-07-24T10:31:38;16.20;;;10.93;;
67747;SDS011;54543;50.712;6.070;2023-07-24T10:34:04;7.55;;;5.43;;
67747;SDS011;54543;50.712;6.070;2023-07-24T10:36:34;6.47;;;3.88;;
67747;SDS011;54543;50.712;6.070;2023-07-24T10:39:00;10.43;;;8.32;;
67747;SDS011;54543;50.712;6.070;2023-07-24T10:41:37;7.53;;;5.03;;
67747;SDS011;54543;50.712;6.070;2023-07-24T10:44:03;6.18;;;4.05;;
67747;SDS011;54543;50.712;6.070;2023-07-24T10:46:41;4.80;;;3.35;;
67747;SDS011;54543;50.712;6.070;2023-07-24T10:49:10;6.80;;;3.45;;
67747;SDS011;54543;50.712;6.070;2023-07-24T10:51:36;4.57;;;3.20;;
67747;SDS011;54543;50.712;6.070;2023-07-24T10:54:05;4.63;;;3.35;;
67747;SDS011;54543;50.712;6.070;2023-07-24T10:56:30;4.97;;;2.85;;
67747;SDS011;54543;50.712;6.070;2023-07-24T10:58:56;5.40;;;3.20;;
67747;SDS011;54543;50.712;6.070;2023-07-24T11:01:27;3.78;;;2.67;;
67747;SDS011;54543;50.712;6.070;2023-07-24T11:03:53;4.97;;;2.88;;
67747;SDS011;54543;50.712;6.070;2023-07-24T11:06:19;4.93;;;2.75;;
67747;SDS011;54543;50.712;6.070;2023-07-24T11:08:54;4.30;;;2.58;;
67747;SDS011;54543;50.712;6.070;2023-07-24T11:11:42;10.38;;;3.17;;
67747;SDS011;54543;50.712;6.070;2023-07-24T11:14:13;6.60;;;2.05;;
67747;SDS011;54543;50.712;6.070;2023-07-24T11:16:47;3.78;;;1.60;;
67747;SDS011;54543;50.712;6.070;2023-07-24T11:19:22;3.90;;;1.42;;
67747;SDS011;54543;50.712;6.070;2023-07-24T11:21:49;3.70;;;0.95;;
67747;SDS011;54543;50.712;6.070;2023-07-24T11:24:15;1.00;;;0.88;;
67747;SDS011;54543;50.712;6.070;2023-07-24T11:26:43;0.80;;;0.65;;
67747;SDS011;54543;50.712;6.070;2023-07-24T11:29:11;0.88;;;0.60;;
67747;SDS011;54543;50.712;6.070;2023-07-24T11:31:38;1.75;;;1.00;;
67747;SDS011;54543;50.712;6.070;2023-07-24T11:34:04;1.98;;;1.40;;
67747;SDS011;54543;50.712;6.070;2023-07-24T11:36:30;2.78;;;1.65;;
67747;SDS011;54543;50.712;6.070;2023-07-24T11:38:56;2.53;;;1.67;;
67747;SDS011;54543;50.712;6.070;2023-07-24T11:41:22;3.90;;;1.98;;
67747;SDS011;54543;50.712;6.070;2023-07-24T11:43:49;3.08;;;1.80;;
67747;SDS011;54543;50.712;6.070;2023-07-24T11:46:22;2.65;;;1.70;;
67747;SDS011;54543;50.712;6.070;2023-07-24T11:48:52;3.38;;;2.53;;
67747;SDS011;54543;50.712;6.070;2023-07-24T11:51:20;3.42;;;2.17;;
67747;SDS011;54543;50.712;6.070;2023-07-24T11:53:46;3.10;;;1.92;;
67747;SDS011;54543;50.712;6.070;2023-07-24T11:56:15;3.55;;;2.00;;
67747;SDS011;54543;50.712;6.070;2023-07-24T11:58:42;2.80;;;2.00;;
67747;SDS011;54543;50.712;6.070;2023-07-24T12:01:08;3.47;;;2.35;;
67747;SDS011;54543;50.712;6.070;2023-07-24T12:03:34;2.83;;;1.90;;
67747;SDS011;54543;50.712;6.070;2023-07-24T12:06:00;3.13;;;1.85;;
67747;SDS011;54543;50.712;6.070;2023-07-24T12:08:34;2.47;;;1.80;;
67747;SDS011;54543;50.712;6.070;2023-07-24T12:11:00;3.25;;;1.85;;
67747;SDS011;54543;50.712;6.070;2023-07-24T12:13:26;2.55;;;2.03;;
67747;SDS011;54543;50.712;6.070;2023-07-24T12:15:52;3.33;;;1.95;;
67747;SDS011;54543;50.712;6.070;2023-07-24T12:18:18;3.33;;;2.22;;
67747;SDS011;54543;50.712;6.070;2023-07-24T12:20:43;3.65;;;2.13;;
67747;SDS011;54543;50.712;6.070;2023-07-24T12:23:09;3.58;;;2.50;;
67747;SDS011;54543;50.712;6.070;2023-07-24T12:25:34;4.72;;;3.03;;
67747;SDS011;54543;50.712;6.070;2023-07-24T12:28:00;4.05;;;2.47;;
67747;SDS011;54543;50.712;6.070;2023-07-24T12:30:26;4.35;;;3.20;;
67747;SDS011;54543;50.712;6.070;2023-07-24T12:32:51;3.65;;;2.38;;
67747;SDS011;54543;50.712;6.070;2023-07-24T12:35:17;4.10;;;2.90;;
67747;SDS011;54543;50.712;6.070;2023-07-24T12:37:43;3.67;;;2.58;;
67747;SDS011;54543;50.712;6.070;2023-07-24T12:40:10;3.60;;;2.55;;
67747;SDS011;54543;50.712;6.070;2023-07-24T12:42:36;3.95;;;2.72;;
67747;SDS011;54543;50.712;6.070;2023-07-24T12:45:02;3.95;;;2.80;;
67747;SDS011;54543;50.712;6.070;2023-07-24T12:47:29;3.80;;;2.70;;
67747;SDS011;54543;50.712;6.070;2023-07-24T12:49:54;3.88;;;2.20;;
67747;SDS011;54543;50.712;6.070;2023-07-24T12:52:21;4.43;;;2.50;;
67747;SDS011;54543;50.712;6.070;2023-07-24T12:54:46;3.40;;;2.30;;
67747;SDS011;54543;50.712;6.070;2023-07-24T12:57:12;2.92;;;1.90;;
67747;SDS011;54543;50.712;6.070;2023-07-24T12:59:38;2.88;;;1.90;;
67747;SDS011;54543;50.712;6.070;2023-07-24T13:02:03;2.53;;;1.60;;
67747;SDS011;54543;50.712;6.070;2023-07-24T13:04:29;4.97;;;1.70;;
67747;SDS011;54543;50.712;6.070;2023-07-24T13:06:54;2.95;;;1.77;;
67747;SDS011;54543;50.712;6.070;2023-07-24T13:09:20;4.05;;;1.92;;
67747;SDS011;54543;50.712;6.070;2023-07-24T13:11:46;3.40;;;1.85;;
67747;SDS011;54543;50.712;6.070;2023-07-24T13:14:14;2.35;;;1.83;;
67747;SDS011;54543;50.712;6.070;2023-07-24T13:16:40;1.75;;;1.20;;
67747;SDS011;54543;50.712;6.070;2023-07-24T13:19:06;3.15;;;1.75;;
67747;SDS011;54543;50.712;6.070;2023-07-24T13:21:33;2.15;;;1.55;;
67747;SDS011;54543;50.712;6.070;2023-07-24T13:23:58;5.55;;;2.35;;
67747;SDS011;54543;50.712;6.070;2023-07-24T13:26:24;3.92;;;2.40;;
67747;SDS011;54543;50.712;6.070;2023-07-24T13:28:49;3.33;;;2.13;;
67747;SDS011;54543;50.712;6.070;2023-07-24T13:31:17;3.35;;;2.25;;
67747;SDS011;54543;50.712;6.070;2023-07-24T13:33:43;3.72;;;2.45;;
67747;SDS011;54543;50.712;6.070;2023-07-24T13:36:09;4.15;;;2.13;;
67747;SDS011;54543;50.712;6.070;2023-07-24T13:38:35;3.55;;;2.00;;
67747;SDS011;54543;50.712;6.070;2023-07-24T13:41:01;3.30;;;2.15;;
67747;SDS011;54543;50.712;6.070;2023-07-24T13:43:28;3.40;;;2.08;;
67747;SDS011;54543;50.712;6.070;2023-07-24T13:45:54;3.83;;;2.25;;
67747;SDS011;54543;50.712;6.070;2023-07-24T13:48:20;4.25;;;2.10;;
67747;SDS011;54543;50.712;6.070;2023-07-24T13:50:46;4.25;;;2.53;;
67747;SDS011;54543;50.712;6.070;2023-07-24T13:53:11;3.80;;;2.40;;
67747;SDS011;54543;50.712;6.070;2023-07-24T13:55:37;4.80;;;2.60;;
67747;SDS011;54543;50.712;6.070;2023-07-24T13:58:03;3.92;;;2.50;;
67747;SDS011;54543;50.712;6.070;2023-07-24T14:00:28;6.88;;;3.30;;
67747;SDS011;54543;50.712;6.070;2023-07-24T14:02:54;4.40;;;2.63;;
67747;SDS011;54543;50.712;6.070;2023-07-24T14:05:20;9.65;;;2.97;;
67747;SDS011;54543;50.712;6.070;2023-07-24T14:07:45;5.60;;;3.45;;
67747;SDS011;54543;50.712;6.070;2023-07-24T14:10:11;4.47;;;2.72;;
67747;SDS011;54543;50.712;6.070;2023-07-24T14:12:36;5.82;;;3.47;;
67747;SDS011;54543;50.712;6.070;2023-07-24T14:15:02;5.60;;;2.97;;
67747;SDS011;54543;50.712;6.070;2023-07-24T14:17:29;6.15;;;3.22;;
67747;SDS011;54543;50.712;6.070;2023-07-24T14:19:54;6.72;;;3.80;;
67747;SDS011;54543;50.712;6.070;2023-07-24T14:22:20;4.60;;;3.10;;
67747;SDS011;54543;50.712;6.070;2023-07-24T14:24:46;5.43;;;3.28;;
67747;SDS011;54543;50.712;6.070;2023-07-24T14:27:12;4.80;;;2.90;;
67747;SDS011;54543;50.712;6.070;2023-07-24T14:29:38;5.15;;;3.08;;
67747;SDS011;54543;50.712;6.070;2023-07-24T14:32:04;6.65;;;3.83;;
67747;SDS011;54543;50.712;6.070;2023-07-24T14:34:31;5.38;;;3.25;;
67747;SDS011;54543;50.712;6.070;2023-07-24T14:36:57;4.10;;;2.65;;
67747;SDS011;54543;50.712;6.070;2023-07-24T14:39:23;6.05;;;3.65;;
67747;SDS011;54543;50.712;6.070;2023-07-24T14:41:49;7.03;;;4.22;;
67747;SDS011;54543;50.712;6.070;2023-07-24T14:44:14;4.93;;;3.22;;
67747;SDS011;54543;50.712;6.070;2023-07-24T14:46:40;5.60;;;3.30;;
67747;SDS011;54543;50.712;6.070;2023-07-24T14:49:06;7.13;;;3.83;;